M I D A S
Marine Information and Data Acquisition System
Tripno 2082 of the Zeeleeuw from 2011-04-21 11:06:20 to 2011-04-21 15:38:22
Back to CruiseResearch ActivitiesStationsMapUnderway DataData graphs

EquipmentUnitsComment
TimeDGPSUTC
LatitudeDGPSDM.mWGS84
LongitudeDGPSDM.mWGS84
HeadingGyrodeg 
SOGDGPSknotsSpeed over ground
COGDGPSdegCourse over ground
DepthEcho soundermeters200 kHz
Missing or incorrect values are displayed as -999
Navigation data collected by the RV Zeeleeuw from 2011-04-21 07:36:17 to 2011-04-21 15:43:30
                                                                                    Next 1000 lines
Time Latitude Longitude Heading SOG COG Depth
2011-04-21 07:36:27 51°13.663 2°55.957 108.8 0.7 293 6.6
2011-04-21 07:36:32 51°13.663 2°55.956 108.7 0.9 294 6.8
2011-04-21 07:36:37 51°13.664 2°55.953 108.9 1.1 294 6.9
2011-04-21 07:36:42 51°13.665 2°55.951 109.1 1.3 294 6.9
2011-04-21 07:36:47 51°13.665 2°55.947 109.4 1.6 295 -999
2011-04-21 07:36:52 51°13.667 2°55.944 109.7 1.8 295 5
2011-04-21 07:36:58 51°13.668 2°55.939 109.7 2 296 -999
2011-04-21 07:37:04 51°13.67 2°55.934 109.9 2.2 295 -999
2011-04-21 07:37:09 51°13.671 2°55.929 110 2.4 295 -999
2011-04-21 07:37:15 51°13.673 2°55.923 110 2.6 295 -999
2011-04-21 07:37:20 51°13.674 2°55.917 110.2 2.8 295 -999
2011-04-21 07:37:25 51°13.676 2°55.911 110.2 3.1 295 -999
2011-04-21 07:37:30 51°13.678 2°55.905 110.2 3.2 294 -999
2011-04-21 07:37:35 51°13.68 2°55.898 110 3.3 294 -999
2011-04-21 07:37:40 51°13.682 2°55.891 109.7 3.4 293 -999
2011-04-21 07:37:45 51°13.684 2°55.884 109.6 3.6 293 -999
2011-04-21 07:37:50 51°13.686 2°55.876 109.6 3.6 293 -999
2011-04-21 07:37:55 51°13.688 2°55.869 109.7 3.7 293 -999
2011-04-21 07:38:00 51°13.69 2°55.861 110 3.8 293 -999
2011-04-21 07:38:05 51°13.692 2°55.853 110.4 3.9 293 -999
2011-04-21 07:38:10 51°13.694 2°55.845 111.1 3.8 294 -999
2011-04-21 07:38:15 51°13.696 2°55.837 112 3.9 294 -999
2011-04-21 07:38:20 51°13.698 2°55.829 112.7 4 295 -999
2011-04-21 07:38:25 51°13.701 2°55.821 113.7 4 295 -999
2011-04-21 07:38:30 51°13.703 2°55.813 114.8 4.1 297 -999
2011-04-21 07:38:35 51°13.706 2°55.805 116.2 4.1 298 -999
2011-04-21 07:38:40 51°13.709 2°55.797 117.3 4.1 299 -999
2011-04-21 07:38:45 51°13.712 2°55.789 118.8 4.2 300 -999
2011-04-21 07:38:50 51°13.715 2°55.781 120.2 4.2 301 -999
2011-04-21 07:38:55 51°13.718 2°55.773 122.2 4.2 303 -999
2011-04-21 07:39:00 51°13.721 2°55.766 123.7 4.2 304 -999
2011-04-21 07:39:05 51°13.724 2°55.758 125.6 4.3 306 -999
2011-04-21 07:39:10 51°13.728 2°55.75 127.2 4.4 308 -999
2011-04-21 07:39:15 51°13.732 2°55.743 129.3 4.5 309 -999
2011-04-21 07:39:20 51°13.736 2°55.735 130.6 4.6 311 -999
2011-04-21 07:39:25 51°13.74 2°55.727 132.2 4.6 312 -999
2011-04-21 07:39:30 51°13.745 2°55.72 133.7 4.7 314 -999
2011-04-21 07:39:35 51°13.75 2°55.713 135.4 4.7 316 -999
2011-04-21 07:39:40 51°13.755 2°55.706 137.2 4.8 317 -999
2011-04-21 07:39:45 51°13.759 2°55.699 138.7 4.8 319 -999
2011-04-21 07:39:50 51°13.765 2°55.692 140.3 4.8 320 -999
2011-04-21 07:39:55 51°13.77 2°55.685 141.9 4.9 322 -999
2011-04-21 07:40:00 51°13.775 2°55.678 143.8 4.9 323 -999
2011-04-21 07:40:05 51°13.781 2°55.672 145.7 4.9 325 -999
2011-04-21 07:40:10 51°13.786 2°55.666 147.7 4.9 327 -999
2011-04-21 07:40:15 51°13.792 2°55.66 150 5 330 -999
2011-04-21 07:40:20 51°13.799 2°55.655 152.4 5 332 -999
2011-04-21 07:40:25 51°13.805 2°55.65 155 5.1 335 -999
2011-04-21 07:40:30 51°13.812 2°55.646 157.6 5.2 338 -999
2011-04-21 07:40:35 51°13.818 2°55.642 160.4 5.3 341 -999
2011-04-21 07:40:40 51°13.825 2°55.639 163.2 5.3 343 -999
2011-04-21 07:40:45 51°13.832 2°55.636 165.5 5.3 345 -999
2011-04-21 07:40:50 51°13.839 2°55.633 167.7 5.2 347 -999
2011-04-21 07:40:55 51°13.847 2°55.631 169.6 5.2 349 -999
2011-04-21 07:41:00 51°13.854 2°55.629 171.3 5.2 350 -999
2011-04-21 07:41:05 51°13.861 2°55.628 172.8 5.1 352 -999
2011-04-21 07:41:10 51°13.868 2°55.627 174.3 5 354 -999
2011-04-21 07:41:15 51°13.874 2°55.626 175.9 4.9 356 -999
2011-04-21 07:41:20 51°13.881 2°55.625 177.7 4.8 356 -999
2011-04-21 07:41:25 51°13.887 2°55.625 179.4 4.7 359 -999
2011-04-21 07:41:30 51°13.894 2°55.625 181.2 4.5 -999 -999
2011-04-21 07:41:35 51°13.9 2°55.625 183 4.4 1 -999
2011-04-21 07:41:40 51°13.906 2°55.625 184.7 4.3 3 -999
2011-04-21 07:41:45 51°13.911 2°55.626 186.6 4.1 5 -999
2011-04-21 07:41:50 51°13.917 2°55.627 188.6 4 6 -999
2011-04-21 07:41:55 51°13.922 2°55.628 190.5 3.9 8 -999
2011-04-21 07:42:00 51°13.928 2°55.629 192.4 3.8 9 -999
2011-04-21 07:42:05 51°13.933 2°55.631 193.9 3.6 11 -999
2011-04-21 07:42:10 51°13.937 2°55.632 196.1 3.5 12 -999
2011-04-21 07:42:15 51°13.942 2°55.634 197.9 3.3 13 -999
2011-04-21 07:42:20 51°13.946 2°55.636 199.4 3.1 14 -999
2011-04-21 07:42:25 51°13.95 2°55.638 200.8 2.8 16 -999
2011-04-21 07:42:30 51°13.953 2°55.639 203.3 2.4 17 -999
2011-04-21 07:42:35 51°13.956 2°55.641 205.3 2 19 10
2011-04-21 07:42:40 51°13.958 2°55.642 207.8 1.7 19 -999
2011-04-21 07:42:45 51°13.96 2°55.643 210.6 1.3 18 -999
2011-04-21 07:42:50 51°13.961 2°55.644 213.4 0.9 14 -999
2011-04-21 07:42:55 51°13.962 2°55.644 216.4 0.7 12 -999
2011-04-21 07:43:00 51°13.962 2°55.644 219.6 0.5 1 -999
2011-04-21 07:43:05 51°13.963 2°55.644 223.2 0.3 328 -999
2011-04-21 07:43:10 51°13.963 2°55.643 226.9 0.3 287 4.7
2011-04-21 07:43:15 51°13.963 2°55.642 230.9 0.7 268 -999
2011-04-21 07:43:20 51°13.963 2°55.64 235.2 1 256 -999
2011-04-21 07:43:25 51°13.962 2°55.636 241.2 1.6 257 -999
2011-04-21 07:43:30 51°13.962 2°55.632 247.7 2.1 260 -999
2011-04-21 07:43:35 51°13.961 2°55.626 254.7 2.5 265 -999
2011-04-21 07:43:40 51°13.961 2°55.62 261.8 2.8 271 -999
2011-04-21 07:43:45 51°13.962 2°55.614 267.4 3.1 278 5.1
2011-04-21 07:43:50 51°13.963 2°55.606 274.5 3.4 285 -999
2011-04-21 07:43:55 51°13.965 2°55.599 281.7 3.7 290 -999
2011-04-21 07:44:00 51°13.967 2°55.591 290.5 3.9 298 10
2011-04-21 07:44:05 51°13.971 2°55.583 294.9 4.2 304 9.6
2011-04-21 07:44:10 51°13.975 2°55.576 300.9 4.5 311 9.4
2011-04-21 07:44:15 51°13.98 2°55.568 306.4 4.9 316 9.1
2011-04-21 07:44:19 51°13.984 2°55.562 312 5.3 317 9.3
2011-04-21 07:44:24 51°13.99 2°55.554 315.5 5.7 320 9.5
2011-04-21 07:44:29 51°13.997 2°55.545 317.9 6 321 9.5
2011-04-21 07:44:34 51°14.004 2°55.537 319.6 6.3 323 9.6
2011-04-21 07:44:39 51°14.011 2°55.528 321 6.7 324 9.5
2011-04-21 07:44:44 51°14.019 2°55.519 322.4 7 326 9.5
2011-04-21 07:44:48 51°14.026 2°55.512 324.3 7.2 327 9.5
2011-04-21 07:44:54 51°14.037 2°55.502 325.7 7.5 329 9.5
2011-04-21 07:44:59 51°14.046 2°55.493 326.7 7.6 328 9.4
2011-04-21 07:45:04 51°14.055 2°55.484 326.9 7.7 329 9.5
2011-04-21 07:45:09 51°14.064 2°55.476 328 7.7 331 9.5
2011-04-21 07:45:14 51°14.073 2°55.467 329.6 7.9 331 9.6
2011-04-21 07:45:19 51°14.083 2°55.459 330.3 8 331 9.5
2011-04-21 07:45:24 51°14.093 2°55.45 330.4 8.1 331 9.5
2011-04-21 07:45:29 51°14.103 2°55.441 330.4 8.2 331 9.4
2011-04-21 07:45:34 51°14.113 2°55.432 330.6 8.4 332 -999
2011-04-21 07:45:40 51°14.126 2°55.421 331.3 8.7 332 9.3
2011-04-21 07:45:44 51°14.134 2°55.414 331.8 8.9 332 -999
2011-04-21 07:45:50 51°14.148 2°55.402 331.9 9.1 332 9.3
2011-04-21 07:45:55 51°14.159 2°55.393 332 9.3 333 9.4
2011-04-21 07:46:00 51°14.171 2°55.383 332.4 9.4 332 -999
2011-04-21 07:46:05 51°14.182 2°55.373 331.8 9.7 331 -999
2011-04-21 07:46:10 51°14.194 2°55.362 331.6 9.8 332 -999
2011-04-21 07:46:15 51°14.206 2°55.352 331.7 9.9 331 9.4
2011-04-21 07:46:20 51°14.218 2°55.341 331.4 10 330 9.4
2011-04-21 07:46:25 51°14.23 2°55.329 330.4 10.1 329 9.4
2011-04-21 07:46:30 51°14.242 2°55.317 328.9 10.2 327 9.3
2011-04-21 07:46:35 51°14.254 2°55.305 327 10.3 327 -999
2011-04-21 07:46:40 51°14.266 2°55.292 326.8 10.4 328 9.3
2011-04-21 07:46:45 51°14.279 2°55.28 327.7 10.5 328 -999
2011-04-21 07:46:50 51°14.291 2°55.267 327.9 10.7 328 -999
2011-04-21 07:46:55 51°14.304 2°55.255 328.6 10.8 329 9.1
2011-04-21 07:47:00 51°14.317 2°55.243 328.9 10.9 328 -999
2011-04-21 07:47:05 51°14.33 2°55.23 328.9 11 329 -999
2011-04-21 07:47:10 51°14.343 2°55.218 329.3 11.2 329 9.3
2011-04-21 07:47:15 51°14.357 2°55.204 329.3 11.3 329 -999
2011-04-21 07:47:20 51°14.371 2°55.192 329 11.4 330 9.1
2011-04-21 07:47:25 51°14.385 2°55.179 329.7 11.5 330 -999
2011-04-21 07:47:29 51°14.396 2°55.17 330.8 11.5 331 8.9
2011-04-21 07:47:35 51°14.412 2°55.154 331 11.6 330 9
2011-04-21 07:47:40 51°14.426 2°55.141 330.4 11.7 331 9.1
2011-04-21 07:47:45 51°14.441 2°55.128 330.7 11.8 330 -999
2011-04-21 07:47:50 51°14.455 2°55.115 331.2 11.8 331 9.3
2011-04-21 07:47:55 51°14.469 2°55.102 331.3 11.8 328 9.5
2011-04-21 07:48:00 51°14.483 2°55.088 329.9 11.9 327 9.5
2011-04-21 07:48:05 51°14.497 2°55.073 328.2 12.1 327 9.6
2011-04-21 07:48:10 51°14.511 2°55.058 327.3 12.2 326 9.8
2011-04-21 07:48:15 51°14.525 2°55.042 326.4 12.2 324 9.9
2011-04-21 07:48:20 51°14.538 2°55.025 325.3 12.4 322 10.3
2011-04-21 07:48:24 51°14.548 2°55.011 324.7 12.6 317 10.6
2011-04-21 07:48:29 51°14.56 2°54.989 322.3 12.8 311 10.3
2011-04-21 07:48:34 51°14.572 2°54.968 318.4 12.9 311 10.9
2011-04-21 07:48:39 51°14.583 2°54.945 315.7 13 308 10.9
2011-04-21 07:48:44 51°14.594 2°54.922 314.3 13.1 308 10.9
2011-04-21 07:48:48 51°14.602 2°54.903 313.5 13.3 305 10.8
2011-04-21 07:48:53 51°14.613 2°54.879 311.7 13.3 303 10.6
2011-04-21 07:48:58 51°14.622 2°54.853 309.3 13.4 301 10.2
2011-04-21 07:49:03 51°14.631 2°54.828 307.8 13.4 299 10.1
2011-04-21 07:49:08 51°14.64 2°54.801 305 13.5 296 10.7
2011-04-21 07:49:12 51°14.646 2°54.779 301.7 13.5 293 10.3
2011-04-21 07:49:17 51°14.652 2°54.75 297.7 13.6 288 10.1
2011-04-21 07:49:22 51°14.656 2°54.721 292.9 13.6 283 9.9
2011-04-21 07:49:27 51°14.659 2°54.692 287.6 13.6 278 9.8
2011-04-21 07:49:32 51°14.661 2°54.662 282.4 13.6 275 9.8
2011-04-21 07:49:37 51°14.661 2°54.631 277 13.6 270 9.7
2011-04-21 07:49:42 51°14.659 2°54.601 271.5 13.7 265 8.7
2011-04-21 07:49:46 51°14.656 2°54.578 266.2 13.7 260 8.7
2011-04-21 07:49:52 51°14.651 2°54.543 260.7 13.6 255 8.7
2011-04-21 07:49:56 51°14.646 2°54.52 255.6 13.6 252 8.7
2011-04-21 07:50:01 51°14.639 2°54.491 250.6 13.8 247 8.6
2011-04-21 07:50:06 51°14.631 2°54.464 246.8 13.9 245 8.7
2011-04-21 07:50:12 51°14.621 2°54.43 244.3 13.9 244 8.5
2011-04-21 07:50:16 51°14.613 2°54.409 241.9 14 242 8.5
2011-04-21 07:50:22 51°14.602 2°54.377 239.5 13.9 240 8.4
2011-04-21 07:50:26 51°14.594 2°54.356 238.3 14 238 8.5
2011-04-21 07:50:31 51°14.583 2°54.329 236.7 14.1 238 8.5
2011-04-21 07:50:36 51°14.572 2°54.303 235.2 14.1 236 8.4
2011-04-21 07:50:42 51°14.559 2°54.272 234.4 14.1 236 8.4
2011-04-21 07:50:46 51°14.55 2°54.251 234 14.1 236 8.3
2011-04-21 07:50:52 51°14.537 2°54.22 233.4 14.2 236 8.3
2011-04-21 07:50:56 51°14.528 2°54.2 233.1 14.2 236 8.3
2011-04-21 07:51:01 51°14.517 2°54.174 233.4 14.2 236 8.3
2011-04-21 07:51:07 51°14.504 2°54.143 233.8 14.2 235 8.3
2011-04-21 07:51:12 51°14.493 2°54.116 234.2 14.2 237 6
2011-04-21 07:51:16 51°14.484 2°54.095 234.9 14.2 237 8.2
2011-04-21 07:51:21 51°14.474 2°54.068 235.5 14.2 239 8.2
2011-04-21 07:51:26 51°14.464 2°54.041 237.4 14.2 241 8.2
2011-04-21 07:51:32 51°14.454 2°54.007 240.4 14.2 244 -999
2011-04-21 07:51:36 51°14.447 2°53.984 242.5 14.2 244 8
2011-04-21 07:51:41 51°14.439 2°53.956 244.3 14.2 247 8.1
2011-04-21 07:51:47 51°14.429 2°53.922 245.6 14.2 245 5.9
2011-04-21 07:51:52 51°14.421 2°53.893 245.5 14.2 247 8
2011-04-21 07:51:56 51°14.415 2°53.87 246.4 14.2 246 8
2011-04-21 07:52:02 51°14.406 2°53.835 246.4 14.2 247 8
2011-04-21 07:52:07 51°14.397 2°53.807 246.3 14.2 245 5.9
2011-04-21 07:52:12 51°14.389 2°53.778 246.2 14.2 246 8
2011-04-21 07:52:16 51°14.382 2°53.755 245.7 14.3 245 8
2011-04-21 07:52:21 51°14.374 2°53.727 244.7 14.3 245 5.9
2011-04-21 07:52:26 51°14.365 2°53.698 244.7 14.2 244 8
2011-04-21 07:52:32 51°14.355 2°53.664 244.2 14.3 244 8
2011-04-21 07:52:36 51°14.348 2°53.641 243.7 14.3 244 8.1
2011-04-21 07:52:41 51°14.339 2°53.613 243.9 14.3 243 8.1
2011-04-21 07:52:46 51°14.33 2°53.585 243.1 14.3 243 8.1
2011-04-21 07:52:52 51°14.319 2°53.552 242.4 14.3 242 8.1
2011-04-21 07:52:56 51°14.311 2°53.529 241.8 14.4 242 8.1
2011-04-21 07:53:02 51°14.3 2°53.496 241.4 14.4 241 8.2
2011-04-21 07:53:06 51°14.292 2°53.474 240.7 14.4 241 8.2
2011-04-21 07:53:12 51°14.28 2°53.441 240.4 14.4 241 8.2
2011-04-21 07:53:16 51°14.272 2°53.418 240.3 14.4 241 8.2
2011-04-21 07:53:22 51°14.261 2°53.385 240.3 14.5 241 8.3
2011-04-21 07:53:26 51°14.253 2°53.362 241.1 14.5 242 8.4
2011-04-21 07:53:32 51°14.241 2°53.329 240.8 14.4 240 8.3
2011-04-21 07:53:36 51°14.233 2°53.306 240 14.5 240 8.4
2011-04-21 07:53:41 51°14.223 2°53.279 239.7 14.5 240 8.5
2011-04-21 07:53:46 51°14.213 2°53.251 239.7 14.5 240 8.4
2011-04-21 07:53:52 51°14.201 2°53.217 239.6 14.6 240 8.5
2011-04-21 07:53:56 51°14.193 2°53.195 239.6 14.6 240 8.5
2011-04-21 07:54:01 51°14.183 2°53.167 239.7 14.6 240 8.5
2011-04-21 07:54:06 51°14.173 2°53.139 239.8 14.6 240 8.5
2011-04-21 07:54:12 51°14.161 2°53.106 239.8 14.6 240 8.6
2011-04-21 07:54:16 51°14.153 2°53.084 239.8 14.6 240 8.6
2011-04-21 07:54:20 51°14.145 2°53.061 239.6 14.6 240 8.7
2011-04-21 07:54:26 51°14.132 2°53.028 239.3 14.6 239 8.7
2011-04-21 07:54:32 51°14.119 2°52.995 238.2 14.6 238 8.7
2011-04-21 07:54:36 51°14.11 2°52.974 236.9 14.6 237 8.7
2011-04-21 07:54:42 51°14.097 2°52.941 235.9 14.6 235 8.7
2011-04-21 07:54:46 51°14.087 2°52.92 234.4 14.6 234 8.7
2011-04-21 07:54:51 51°14.075 2°52.894 233.3 14.6 234 8.8
2011-04-21 07:54:56 51°14.063 2°52.869 231.6 14.6 232 8.8
2011-04-21 07:55:01 51°14.05 2°52.843 230.6 14.6 232 8.7
2011-04-21 07:55:06 51°14.038 2°52.818 230.1 14.6 231 8.7
2011-04-21 07:55:12 51°14.022 2°52.788 228.7 14.6 229 8.8
2011-04-21 07:55:16 51°14.012 2°52.768 228.1 14.6 230 8.9
2011-04-21 07:55:22 51°13.996 2°52.739 227.9 14.6 230 8.9
2011-04-21 07:55:26 51°13.985 2°52.719 227.8 14.6 230 8.8
2011-04-21 07:55:32 51°13.97 2°52.689 228 14.7 231 8.7
2011-04-21 07:55:36 51°13.96 2°52.668 229.2 14.6 233 8.8
2011-04-21 07:55:42 51°13.945 2°52.638 230.3 14.7 233 8.8
2011-04-21 07:55:47 51°13.934 2°52.611 231.7 14.7 235 8.9
2011-04-21 07:55:52 51°13.922 2°52.584 233.3 14.6 236 8.8
2011-04-21 07:55:56 51°13.913 2°52.563 234.2 14.7 237 8.8
2011-04-21 07:56:01 51°13.902 2°52.535 235.3 14.7 238 8.8
2011-04-21 07:56:07 51°13.89 2°52.502 236.5 14.6 239 8.8
2011-04-21 07:56:12 51°13.879 2°52.474 238.1 14.6 240 8.8
2011-04-21 07:56:16 51°13.871 2°52.452 238.4 14.6 239 8.8
2011-04-21 07:56:20 51°13.863 2°52.429 239.2 14.6 240 8.8
2011-04-21 07:56:27 51°13.849 2°52.39 239.6 14.6 240 8.8
2011-04-21 07:56:32 51°13.839 2°52.362 239.6 14.7 240 8.9
2011-04-21 07:56:36 51°13.831 2°52.34 239.6 14.7 240 8.9
2011-04-21 07:56:41 51°13.821 2°52.311 239.5 14.7 239 8.9
2011-04-21 07:56:46 51°13.81 2°52.284 238.9 14.7 239 8.8
2011-04-21 07:56:52 51°13.797 2°52.251 238.2 14.7 238 8.9
2011-04-21 07:56:56 51°13.789 2°52.229 237.8 14.7 238 8.8
2011-04-21 07:57:02 51°13.775 2°52.196 237 14.7 237 8.9
2011-04-21 07:57:06 51°13.766 2°52.174 236.5 14.7 236 8.9
2011-04-21 07:57:11 51°13.755 2°52.148 234.5 14.7 234 8.9
2011-04-21 07:57:16 51°13.742 2°52.122 232.5 14.7 233 8.9
2011-04-21 07:57:21 51°13.73 2°52.096 230.8 14.7 232 8.9
2011-04-21 07:57:26 51°13.717 2°52.071 230.1 14.7 231 8.9
2011-04-21 07:57:32 51°13.701 2°52.041 229.4 14.7 231 8.9
2011-04-21 07:57:36 51°13.691 2°52.021 228.7 14.7 231 8.8
2011-04-21 07:57:42 51°13.676 2°51.99 228.6 14.7 231 8.9
2011-04-21 07:57:46 51°13.666 2°51.97 229.3 14.7 233 8.9
2011-04-21 07:57:52 51°13.651 2°51.939 230 14.7 233 9
2011-04-21 07:57:56 51°13.642 2°51.917 231.1 14.7 236 9
2011-04-21 07:58:02 51°13.628 2°51.885 233.9 14.7 237 8.9
2011-04-21 07:58:06 51°13.62 2°51.862 235.5 14.7 239 8.9
2011-04-21 07:58:12 51°13.608 2°51.828 238 14.7 240 8.9
2011-04-21 07:58:16 51°13.6 2°51.806 239.4 14.7 241 8.9
2011-04-21 07:58:21 51°13.589 2°51.777 239.6 14.7 241 8.9
2011-04-21 07:58:26 51°13.579 2°51.749 239.8 14.7 241 9
2011-04-21 07:58:32 51°13.567 2°51.715 240 14.8 241 9.1
2011-04-21 07:58:36 51°13.559 2°51.693 239.9 14.7 240 9
2011-04-21 07:58:41 51°13.549 2°51.664 239.4 14.8 240 9.1
2011-04-21 07:58:46 51°13.538 2°51.636 238.9 14.8 238 9.1
2011-04-21 07:58:52 51°13.525 2°51.603 237.6 14.7 237 9
2011-04-21 07:58:56 51°13.515 2°51.582 235.3 14.7 234 9.1
2011-04-21 07:59:02 51°13.501 2°51.551 232.7 14.7 233 9.1
2011-04-21 07:59:06 51°13.491 2°51.531 231.4 14.7 232 9.2
2011-04-21 07:59:12 51°13.475 2°51.5 230.2 14.8 231 9.1
2011-04-21 07:59:16 51°13.465 2°51.479 229.4 14.8 232 9.1
2011-04-21 07:59:21 51°13.452 2°51.454 229.4 14.7 231 9.1
2011-04-21 07:59:26 51°13.439 2°51.429 228.9 14.7 231 9.1
2011-04-21 07:59:32 51°13.424 2°51.399 228.6 14.7 231 9.2
2011-04-21 07:59:36 51°13.414 2°51.378 228.7 14.7 231 9.1
2011-04-21 07:59:41 51°13.401 2°51.353 229 14.8 232 9.2
2011-04-21 07:59:46 51°13.389 2°51.327 229.8 14.7 233 9.1
2011-04-21 07:59:52 51°13.374 2°51.296 230.5 14.7 233 9.1
2011-04-21 07:59:56 51°13.365 2°51.274 231.9 14.7 236 9.2
2011-04-21 08:00:01 51°13.353 2°51.247 233.8 14.7 237 9.1
2011-04-21 08:00:06 51°13.343 2°51.219 235.2 14.8 239 9.1
2011-04-21 08:00:12 51°13.33 2°51.185 237.6 14.8 240 9.1
2011-04-21 08:00:16 51°13.322 2°51.162 239.3 14.8 241 9.2
2011-04-21 08:00:21 51°13.312 2°51.134 240.2 14.8 241 9.2
2011-04-21 08:00:26 51°13.303 2°51.105 240.2 14.8 241 9.2
2011-04-21 08:00:32 51°13.29 2°51.071 240.4 14.8 241 9.2
2011-04-21 08:00:36 51°13.283 2°51.048 240.5 14.8 241 9.2
2011-04-21 08:00:41 51°13.272 2°51.02 240.2 14.8 240 9.3
2011-04-21 08:00:46 51°13.262 2°50.992 239 14.8 239 9.2
2011-04-21 08:00:52 51°13.249 2°50.958 238.2 14.8 239 9.3
2011-04-21 08:00:56 51°13.241 2°50.936 238 14.7 239 9.2
2011-04-21 08:01:02 51°13.228 2°50.903 237.5 14.8 238 9.3
2011-04-21 08:01:06 51°13.219 2°50.88 237.4 14.8 239 9.3
2011-04-21 08:01:12 51°13.207 2°50.847 237.5 14.8 239 9.3
2011-04-21 08:01:16 51°13.198 2°50.824 238 14.8 239 9.3
2011-04-21 08:01:22 51°13.186 2°50.79 238.3 14.8 240 9.4
2011-04-21 08:01:26 51°13.178 2°50.768 238.9 14.8 240 9.3
2011-04-21 08:01:31 51°13.167 2°50.74 239.1 14.8 239 9.4
2011-04-21 08:01:36 51°13.157 2°50.712 238.7 14.8 239 9.3
2011-04-21 08:01:41 51°13.146 2°50.684 238.2 14.8 238 9.4
2011-04-21 08:01:46 51°13.135 2°50.656 237.1 14.8 237 9.4
2011-04-21 08:01:52 51°13.121 2°50.624 236.2 14.8 236 9.4
2011-04-21 08:01:56 51°13.112 2°50.602 234.7 14.8 235 9.4
2011-04-21 08:02:01 51°13.1 2°50.576 232.4 14.7 232 9.4
2011-04-21 08:02:06 51°13.087 2°50.551 230.5 14.7 232 9.4
2011-04-21 08:02:12 51°13.072 2°50.52 229.6 14.7 232 9.4
2011-04-21 08:02:16 51°13.061 2°50.5 229.4 14.7 231 9.4
2011-04-21 08:02:21 51°13.048 2°50.475 228.6 14.7 230 9.4
2011-04-21 08:02:26 51°13.035 2°50.451 227.5 14.7 229 9.4
2011-04-21 08:02:32 51°13.018 2°50.422 225.8 14.7 227 9.4
2011-04-21 08:02:36 51°13.007 2°50.403 224.8 14.7 228 9.4
2011-04-21 08:02:41 51°12.993 2°50.379 224.6 14.7 227 9.5
2011-04-21 08:02:47 51°12.977 2°50.35 224.5 14.7 228 9.5
2011-04-21 08:02:52 51°12.963 2°50.326 224.9 14.7 228 9.6
2011-04-21 08:02:56 51°12.953 2°50.306 225.7 14.7 229 9.4
2011-04-21 08:03:01 51°12.94 2°50.282 226.6 14.7 231 9.6
2011-04-21 08:03:06 51°12.927 2°50.256 228.2 14.7 232 9.4
2011-04-21 08:03:12 51°12.912 2°50.225 229.8 14.7 232 9.6
2011-04-21 08:03:16 51°12.902 2°50.204 230.3 14.7 233 9.5
2011-04-21 08:03:21 51°12.89 2°50.179 230.4 14.7 233 9.5
2011-04-21 08:03:26 51°12.878 2°50.152 230.9 14.8 235 9.5
2011-04-21 08:03:31 51°12.866 2°50.126 232.5 14.7 235 9.5
2011-04-21 08:03:36 51°12.854 2°50.099 233.1 14.7 235 9.5
2011-04-21 08:03:41 51°12.842 2°50.073 232.7 14.7 234 9.5
2011-04-21 08:03:46 51°12.831 2°50.047 232.4 14.7 235 9.5
2011-04-21 08:03:52 51°12.816 2°50.015 233.1 14.7 235 9.4
2011-04-21 08:03:56 51°12.807 2°49.994 233 14.7 235 9.6
2011-04-21 08:04:02 51°12.793 2°49.962 232.9 14.6 234 9.4
2011-04-21 08:04:06 51°12.783 2°49.941 232.5 14.7 235 9.4
2011-04-21 08:04:11 51°12.772 2°49.915 232.8 14.7 235 9.5
2011-04-21 08:04:16 51°12.76 2°49.888 233.7 14.7 236 9.4
2011-04-21 08:04:22 51°12.747 2°49.856 234.1 14.7 236 9.5
2011-04-21 08:04:26 51°12.737 2°49.835 234.1 14.6 236 9.4
2011-04-21 08:04:32 51°12.724 2°49.802 234.2 14.6 236 9.4
2011-04-21 08:04:36 51°12.715 2°49.781 234.5 14.6 236 9.4
2011-04-21 08:04:42 51°12.701 2°49.749 234.8 14.6 236 9.5
2011-04-21 08:04:46 51°12.692 2°49.727 234.5 14.6 236 9.4
2011-04-21 08:04:52 51°12.678 2°49.695 234.7 14.6 236 9.4
2011-04-21 08:04:56 51°12.669 2°49.674 235 14.5 236 9.2
2011-04-21 08:05:01 51°12.658 2°49.648 234.2 14.5 235 9.4
2011-04-21 08:05:06 51°12.646 2°49.622 233.8 14.5 234 9.4
2011-04-21 08:05:12 51°12.632 2°49.591 232.9 14.5 233 9.4
2011-04-21 08:05:16 51°12.622 2°49.571 231.6 14.5 232 9.4
2011-04-21 08:05:21 51°12.609 2°49.545 230.4 14.5 232 9.4
2011-04-21 08:05:26 51°12.597 2°49.52 229.7 14.5 231 9.3
2011-04-21 08:05:32 51°12.582 2°49.49 229 14.5 233 9.4
2011-04-21 08:05:36 51°12.573 2°49.469 230.8 14.4 235 9.3
2011-04-21 08:05:41 51°12.563 2°49.442 233.8 14.4 239 9.3
2011-04-21 08:05:46 51°12.553 2°49.415 237 14.5 241 9.2
2011-04-21 08:05:52 51°12.541 2°49.381 239.8 14.4 242 9
2011-04-21 08:05:56 51°12.534 2°49.358 241.4 14.4 243 9.3
2011-04-21 08:06:02 51°12.523 2°49.324 242.6 14.4 244 9.3
2011-04-21 08:06:06 51°12.517 2°49.301 243.8 14.5 245 9.4
2011-04-21 08:06:11 51°12.508 2°49.272 244.7 14.5 246 9.1
2011-04-21 08:06:16 51°12.5 2°49.242 245.9 14.5 247 9.4
2011-04-21 08:06:22 51°12.491 2°49.207 247 14.5 247 9.1
2011-04-21 08:06:26 51°12.485 2°49.183 247.5 14.5 248 9.4
2011-04-21 08:06:32 51°12.476 2°49.148 247.8 14.5 247 9.3
2011-04-21 08:06:36 51°12.47 2°49.124 247.8 14.6 248 9.4
2011-04-21 08:06:42 51°12.46 2°49.088 247.8 14.6 248 9.5
2011-04-21 08:06:46 51°12.454 2°49.064 248 14.6 247 9.4
2011-04-21 08:06:52 51°12.444 2°49.029 247.6 14.6 247 9.6
2011-04-21 08:06:56 51°12.438 2°49.005 247.3 14.6 247 9.6
2011-04-21 08:07:02 51°12.428 2°48.97 247 14.6 246 9.7
2011-04-21 08:07:06 51°12.422 2°48.946 246.5 14.6 246 9.7
2011-04-21 08:07:12 51°12.411 2°48.911 245.9 14.6 245 9.7
2011-04-21 08:07:16 51°12.405 2°48.888 244.9 14.6 244 9.8
2011-04-21 08:07:21 51°12.395 2°48.859 244 14.6 243 9.4
2011-04-21 08:07:26 51°12.386 2°48.831 242.5 14.5 241 9.5
2011-04-21 08:07:32 51°12.373 2°48.798 240.4 14.6 240 9.8
2011-04-21 08:07:36 51°12.365 2°48.776 238.9 14.6 239 9.6
2011-04-21 08:07:41 51°12.354 2°48.748 237.7 14.5 238 9.5
2011-04-21 08:07:46 51°12.344 2°48.721 236.8 14.5 237 9.6
2011-04-21 08:07:52 51°12.33 2°48.689 236 14.6 237 9.6
2011-04-21 08:07:56 51°12.322 2°48.667 235.9 14.6 237 9.7
2011-04-21 08:08:01 51°12.311 2°48.64 235.7 14.5 237 9.5
2011-04-21 08:08:06 51°12.3 2°48.613 235.2 14.5 237 9.4
2011-04-21 08:08:12 51°12.287 2°48.581 235.5 14.6 238 9.6
2011-04-21 08:08:16 51°12.278 2°48.559 236.2 14.6 238 9.5
2011-04-21 08:08:21 51°12.267 2°48.531 236.6 14.6 238 9.6
2011-04-21 08:08:26 51°12.257 2°48.504 236.9 14.6 238 9.8
2011-04-21 08:08:31 51°12.246 2°48.476 237.4 14.6 239 9.5
2011-04-21 08:08:36 51°12.236 2°48.449 238.2 14.6 240 9.4
2011-04-21 08:08:41 51°12.227 2°48.42 239.7 14.6 242 9.6
2011-04-21 08:08:46 51°12.218 2°48.391 241.5 14.6 243 9.4
2011-04-21 08:08:52 51°12.207 2°48.356 243.1 14.6 245 9.7
2011-04-21 08:08:56 51°12.201 2°48.333 245.1 14.6 246 9.5
2011-04-21 08:09:02 51°12.191 2°48.297 246.5 14.6 247 9.7
2011-04-21 08:09:07 51°12.184 2°48.267 247.4 14.6 248 9.7
2011-04-21 08:09:12 51°12.176 2°48.237 248.2 14.6 249 9.5
2011-04-21 08:09:16 51°12.17 2°48.213 249 14.6 249 9.6
2011-04-21 08:09:21 51°12.163 2°48.183 249.7 14.6 249 9.6
2011-04-21 08:09:26 51°12.156 2°48.153 249.7 14.6 249 9.7
2011-04-21 08:09:32 51°12.147 2°48.117 249.1 14.6 248 9.8
2011-04-21 08:09:36 51°12.141 2°48.093 248.7 14.6 248 9.7
2011-04-21 08:09:41 51°12.133 2°48.063 248.2 14.6 247 9.8
2011-04-21 08:09:46 51°12.125 2°48.033 247.9 14.6 247 9.8
2011-04-21 08:09:52 51°12.115 2°47.998 247.1 14.6 245 9.9
2011-04-21 08:09:56 51°12.108 2°47.975 245.4 14.6 244 9.8
2011-04-21 08:10:01 51°12.099 2°47.946 243.7 14.6 242 9.8
2011-04-21 08:10:06 51°12.089 2°47.918 241.8 14.6 241 9.7
2011-04-21 08:10:12 51°12.077 2°47.885 240 14.5 240 9.9
2011-04-21 08:10:16 51°12.069 2°47.863 238.7 14.5 239 9.9
2011-04-21 08:10:21 51°12.058 2°47.836 237.6 14.5 239 9.8
2011-04-21 08:10:26 51°12.047 2°47.808 237.3 14.5 238 9.7
2011-04-21 08:10:32 51°12.035 2°47.776 237 14.5 238 9.8
2011-04-21 08:10:36 51°12.026 2°47.754 236.8 14.5 238 9.8
2011-04-21 08:10:41 51°12.015 2°47.727 236.6 14.5 238 9.9
2011-04-21 08:10:46 51°12.004 2°47.7 236.3 14.5 238 9.7
2011-04-21 08:10:52 51°11.992 2°47.667 236.4 14.5 239 9.6
2011-04-21 08:10:56 51°11.984 2°47.645 237 14.5 239 9.7
2011-04-21 08:11:01 51°11.973 2°47.617 238.2 14.5 241 9.8
2011-04-21 08:11:06 51°11.964 2°47.589 239.6 14.5 242 9.8
2011-04-21 08:11:11 51°11.955 2°47.561 241.2 14.5 244 9.5
2011-04-21 08:11:16 51°11.946 2°47.532 242.8 14.5 244 9.6
2011-04-21 08:11:21 51°11.938 2°47.503 244.3 14.5 246 9.7
2011-04-21 08:11:26 51°11.93 2°47.473 245.7 14.5 247 9.6
2011-04-21 08:11:32 51°11.921 2°47.437 247.1 14.6 248 9.8
2011-04-21 08:11:36 51°11.915 2°47.413 248.1 14.6 249 9.7
2011-04-21 08:11:41 51°11.908 2°47.384 249.1 14.5 249 9.6
2011-04-21 08:11:46 51°11.901 2°47.354 249.3 14.5 249 9.9
2011-04-21 08:11:52 51°11.892 2°47.318 249.5 14.6 250 9.8
2011-04-21 08:11:56 51°11.886 2°47.294 249.7 14.6 250 9.8
2011-04-21 08:12:01 51°11.88 2°47.263 249.8 14.6 249 9.9
2011-04-21 08:12:07 51°11.871 2°47.227 249.6 14.5 249 9.9
2011-04-21 08:12:12 51°11.864 2°47.197 249.6 14.5 249 9.9
2011-04-21 08:12:16 51°11.858 2°47.173 249.2 14.6 249 9.9
2011-04-21 08:12:22 51°11.849 2°47.138 248.4 14.6 248 9.9
2011-04-21 08:12:26 51°11.842 2°47.114 248 14.5 247 10
2011-04-21 08:12:32 51°11.832 2°47.079 246.5 14.5 245 9.7
2011-04-21 08:12:36 51°11.825 2°47.056 244.8 14.5 244 9.8
2011-04-21 08:12:41 51°11.816 2°47.027 243 14.5 243 9.7
2011-04-21 08:12:46 51°11.807 2°46.999 241.5 14.5 241 10
2011-04-21 08:12:52 51°11.795 2°46.966 239.6 14.6 240 9.8
2011-04-21 08:12:56 51°11.786 2°46.944 238.7 14.5 240 9.8
2011-04-21 08:13:01 51°11.776 2°46.916 238 14.5 239 9.7
2011-04-21 08:13:06 51°11.766 2°46.889 237.4 14.5 239 9.8
2011-04-21 08:13:12 51°11.753 2°46.856 236.8 14.5 238 9.8
2011-04-21 08:13:16 51°11.744 2°46.835 236.3 14.5 238 9.8
2011-04-21 08:13:21 51°11.733 2°46.808 235.7 14.5 238 9.8
2011-04-21 08:13:26 51°11.723 2°46.78 235.9 14.5 239 9.7
2011-04-21 08:13:32 51°11.71 2°46.747 236.5 14.5 239 9.7
2011-04-21 08:13:36 51°11.702 2°46.725 237.4 14.5 240 9.7
2011-04-21 08:13:41 51°11.693 2°46.697 239.1 14.6 242 9.7
2011-04-21 08:13:47 51°11.682 2°46.663 240.5 14.5 243 9.7
2011-04-21 08:13:52 51°11.673 2°46.634 242.1 14.5 244 9.7
2011-04-21 08:13:56 51°11.666 2°46.61 243.2 14.6 246 9.8
2011-04-21 08:14:01 51°11.658 2°46.581 245.5 14.5 247 9.8
2011-04-21 08:14:06 51°11.651 2°46.551 246.9 14.5 248 9.8
2011-04-21 08:14:12 51°11.642 2°46.515 247.6 14.6 248 9.7
2011-04-21 08:14:16 51°11.636 2°46.491 248.1 14.6 249 9.7
2011-04-21 08:14:20 51°11.63 2°46.467 248.4 14.6 249 9.8
2011-04-21 08:14:27 51°11.62 2°46.425 248.7 14.6 249 9.9
2011-04-21 08:14:32 51°11.613 2°46.395 248.8 14.6 249 9.9
2011-04-21 08:14:36 51°11.607 2°46.371 248.8 14.6 249 9.9
2011-04-21 08:14:41 51°11.6 2°46.341 248.6 14.5 249 9.8
2011-04-21 08:14:46 51°11.592 2°46.311 248.6 14.6 248 9.9
2011-04-21 08:14:52 51°11.583 2°46.275 248.1 14.6 248 10
2011-04-21 08:14:56 51°11.577 2°46.252 247.5 14.6 246 9.9
2011-04-21 08:15:01 51°11.568 2°46.222 246.1 14.5 246 9.9
2011-04-21 08:15:06 51°11.559 2°46.194 244.9 14.5 244 9.9
2011-04-21 08:15:12 51°11.548 2°46.159 243.1 14.5 243 9.8
2011-04-21 08:15:16 51°11.541 2°46.137 241.2 14.5 241 9.9
2011-04-21 08:15:21 51°11.53 2°46.11 239.5 14.5 240 9.9
2011-04-21 08:15:26 51°11.52 2°46.082 238.7 14.5 240 9.8
2011-04-21 08:15:32 51°11.508 2°46.049 238.3 14.4 240 9.7
2011-04-21 08:15:36 51°11.5 2°46.027 238.2 14.4 240 9.7
2011-04-21 08:15:41 51°11.491 2°45.999 239.1 14.5 242 9.6
2011-04-21 08:15:47 51°11.479 2°45.965 239.9 14.5 242 9.6
2011-04-21 08:15:52 51°11.471 2°45.936 241.1 14.5 244 9.5
2011-04-21 08:15:56 51°11.464 2°45.913 242.3 14.5 244 9.5
2011-04-21 08:16:01 51°11.456 2°45.884 243.3 14.4 245 9.6
2011-04-21 08:16:06 51°11.447 2°45.855 244.4 14.5 246 9.5
2011-04-21 08:16:12 51°11.438 2°45.819 245.4 14.5 247 9.5
2011-04-21 08:16:16 51°11.432 2°45.795 246.8 14.5 248 9.6
2011-04-21 08:16:20 51°11.426 2°45.771 247.7 14.5 249 9.5
2011-04-21 08:16:27 51°11.416 2°45.73 248.3 14.5 249 9.5
2011-04-21 08:16:32 51°11.409 2°45.7 248.3 14.5 249 9.6
2011-04-21 08:16:36 51°11.403 2°45.676 248.2 14.5 249 9.7
2011-04-21 08:16:42 51°11.394 2°45.64 248.3 14.5 249 9.7
2011-04-21 08:16:46 51°11.388 2°45.616 248.3 14.5 248 9.6
2011-04-21 08:16:52 51°11.379 2°45.581 248 14.5 248 9.6
2011-04-21 08:16:56 51°11.373 2°45.557 247.6 14.5 248 9.6
2011-04-21 08:17:01 51°11.365 2°45.527 247.4 14.5 248 9.6
2011-04-21 08:17:06 51°11.357 2°45.498 247 14.5 247 9.6
2011-04-21 08:17:12 51°11.348 2°45.463 245.9 14.5 246 9.6
2011-04-21 08:17:16 51°11.341 2°45.44 245.4 14.4 246 9.5
2011-04-21 08:17:22 51°11.33 2°45.405 244.5 14.4 243 9.5
2011-04-21 08:17:26 51°11.323 2°45.383 242.4 14.5 242 9.5
2011-04-21 08:17:31 51°11.313 2°45.355 240.5 14.4 241 9.6
2011-04-21 08:17:36 51°11.304 2°45.327 239.5 14.4 241 9.4
2011-04-21 08:17:41 51°11.294 2°45.299 239.4 14.4 241 9.4
2011-04-21 08:17:46 51°11.284 2°45.272 239 14.4 240 9.4
2011-04-21 08:17:52 51°11.272 2°45.239 238.3 14.4 239 9.4
2011-04-21 08:17:56 51°11.263 2°45.218 237.4 14.3 238 9.3
2011-04-21 08:18:02 51°11.25 2°45.186 235.2 14.3 237 9.3
2011-04-21 08:18:07 51°11.239 2°45.159 234.5 14.3 237 9.2
2011-04-21 08:18:12 51°11.228 2°45.133 234.5 14.3 238 9.2
2011-04-21 08:18:16 51°11.22 2°45.111 235.2 14.3 238 9.1
2011-04-21 08:18:21 51°11.21 2°45.084 236 14.3 239 9.2
2011-04-21 08:18:26 51°11.2 2°45.057 237 14.2 241 9.1
2011-04-21 08:18:32 51°11.189 2°45.024 238.8 14.3 242 9
2011-04-21 08:18:36 51°11.182 2°45.002 240.7 14.3 245 9
2011-04-21 08:18:41 51°11.174 2°44.973 242.8 14.2 246 9
2011-04-21 08:18:46 51°11.166 2°44.944 244.9 14.2 248 8.9
2011-04-21 08:18:52 51°11.158 2°44.908 247.2 14.3 249 9.1
2011-04-21 08:18:56 51°11.152 2°44.885 248.6 14.3 250 9
2011-04-21 08:19:01 51°11.146 2°44.855 250.1 14.3 252 8.9
2011-04-21 08:19:06 51°11.14 2°44.825 251.6 14.3 253 9
2011-04-21 08:19:12 51°11.133 2°44.789 252.6 14.3 253 9.1
2011-04-21 08:19:16 51°11.128 2°44.765 252.9 14.3 253 9.1
2011-04-21 08:19:21 51°11.123 2°44.735 253.1 14.3 253 9.1
2011-04-21 08:19:26 51°11.117 2°44.705 252.9 14.3 252 9.1
2011-04-21 08:19:31 51°11.11 2°44.675 252.3 14.3 252 9.1
2011-04-21 08:19:36 51°11.104 2°44.645 251.4 14.4 251 9.2
2011-04-21 08:19:41 51°11.097 2°44.615 251.2 14.3 251 9.1
2011-04-21 08:19:46 51°11.091 2°44.585 251 14.3 250 9.1
2011-04-21 08:19:52 51°11.082 2°44.55 249.7 14.3 248 9.1
2011-04-21 08:19:56 51°11.076 2°44.527 248 14.2 246 9.2
2011-04-21 08:20:01 51°11.067 2°44.499 245.4 14.3 244 9.1
2011-04-21 08:20:07 51°11.057 2°44.465 242.9 14.3 243 9.1
2011-04-21 08:20:12 51°11.047 2°44.437 241.3 14.3 242 9.1
2011-04-21 08:20:16 51°11.04 2°44.415 240.1 14.2 241 9
2011-04-21 08:20:21 51°11.03 2°44.388 239.1 14.2 240 9
2011-04-21 08:20:27 51°11.018 2°44.356 238.2 14.2 240 9
2011-04-21 08:20:32 51°11.007 2°44.329 237.8 14.2 239 8.9
2011-04-21 08:20:36 51°11 2°44.307 237.5 14.2 240 8.9
2011-04-21 08:20:41 51°10.99 2°44.28 237.5 14.2 239 9
2011-04-21 08:20:46 51°10.98 2°44.253 237.6 14.2 240 8.8
2011-04-21 08:20:52 51°10.968 2°44.221 237.6 14.1 240 8.8
2011-04-21 08:20:56 51°10.96 2°44.199 238.1 14.1 240 8.7
2011-04-21 08:21:01 51°10.95 2°44.173 238 14.1 240 8.8
2011-04-21 08:21:06 51°10.94 2°44.146 238 14.1 240 8.7
2011-04-21 08:21:12 51°10.929 2°44.113 238.1 14.1 240 8.6
2011-04-21 08:21:16 51°10.921 2°44.092 238.3 14.1 241 8.6
2011-04-21 08:21:22 51°10.91 2°44.059 239.2 14.1 242 8.6
2011-04-21 08:21:26 51°10.903 2°44.037 240 14.1 243 8.6
2011-04-21 08:21:32 51°10.893 2°44.003 241.9 14.1 246 8.5
2011-04-21 08:21:36 51°10.887 2°43.98 244.5 14 248 8.5
2011-04-21 08:21:41 51°10.881 2°43.95 247.2 14 251 8.6
2011-04-21 08:21:46 51°10.875 2°43.921 250.3 14 252 8.5
2011-04-21 08:21:52 51°10.868 2°43.886 252.1 14 253 8.5
2011-04-21 08:21:56 51°10.863 2°43.862 253.1 14 254 8.5
2011-04-21 08:22:02 51°10.857 2°43.826 254.2 14 254 8.5
2011-04-21 08:22:06 51°10.853 2°43.802 254.8 14.1 256 8.5
2011-04-21 08:22:12 51°10.847 2°43.766 255.6 14 255 8.6
2011-04-21 08:22:16 51°10.843 2°43.742 255.6 14.1 255 8.6
2011-04-21 08:22:22 51°10.837 2°43.706 254.9 14.1 254 8.6
2011-04-21 08:22:26 51°10.833 2°43.682 254.5 14.1 253 8.7
2011-04-21 08:22:32 51°10.826 2°43.647 253.5 14.1 253 8.7
2011-04-21 08:22:36 51°10.821 2°43.623 252.9 14.1 253 8.6
2011-04-21 08:22:42 51°10.814 2°43.587 252.3 14.1 252 8.7
2011-04-21 08:22:47 51°10.807 2°43.558 251.7 14.1 251 8.7
2011-04-21 08:22:52 51°10.801 2°43.529 251 14.1 250 8.6
2011-04-21 08:22:56 51°10.795 2°43.505 249.7 14.1 248 8.6
2011-04-21 08:23:01 51°10.787 2°43.477 247.8 14.1 246 8.7
2011-04-21 08:23:07 51°10.777 2°43.443 245.4 14.1 244 8.6
2011-04-21 08:23:12 51°10.768 2°43.416 242.8 14.1 242 8.6
2011-04-21 08:23:16 51°10.76 2°43.394 240.7 14.1 241 8.6
2011-04-21 08:23:20 51°10.753 2°43.372 239.6 14.1 241 8.6
2011-04-21 08:23:26 51°10.741 2°43.34 238.9 14 240 8.5
2011-04-21 08:23:32 51°10.729 2°43.308 237.9 14 240 8.5
2011-04-21 08:23:36 51°10.721 2°43.287 237.5 14 239 8.4
2011-04-21 08:23:42 51°10.709 2°43.255 237 14 239 8.4
2011-04-21 08:23:46 51°10.701 2°43.234 236.7 14 239 8.4
2011-04-21 08:23:51 51°10.691 2°43.207 236.8 14 239 8.3
2011-04-21 08:23:56 51°10.681 2°43.181 236.9 14 239 8.3
2011-04-21 08:24:01 51°10.672 2°43.154 237.4 14 241 6.1
2011-04-21 08:24:07 51°10.66 2°43.122 238.4 13.9 241 8.2
2011-04-21 08:24:12 51°10.651 2°43.095 238.9 14 242 8.2
2011-04-21 08:24:16 51°10.644 2°43.073 240.3 14 245 8.1
2011-04-21 08:24:21 51°10.637 2°43.045 243.3 13.9 248 6
2011-04-21 08:24:26 51°10.63 2°43.016 246.6 13.9 251 8.1
2011-04-21 08:24:32 51°10.624 2°42.981 249.8 13.9 253 8.1
2011-04-21 08:24:36 51°10.62 2°42.957 252.7 13.9 255 8.1
2011-04-21 08:24:41 51°10.615 2°42.927 254.8 13.8 256 6
2011-04-21 08:24:46 51°10.611 2°42.898 256.4 13.9 257 8.2
2011-04-21 08:24:52 51°10.605 2°42.862 257 13.9 257 8.2
2011-04-21 08:24:56 51°10.602 2°42.838 257.2 13.9 257 8.1
2011-04-21 08:25:01 51°10.597 2°42.808 256.7 14 256 8.3
2011-04-21 08:25:06 51°10.592 2°42.779 256.1 14 255 8.2
2011-04-21 08:25:12 51°10.586 2°42.743 255.2 14 254 6
2011-04-21 08:25:16 51°10.581 2°42.719 254.6 14 254 6
2011-04-21 08:25:21 51°10.576 2°42.69 254.1 14 254 8.3
2011-04-21 08:25:26 51°10.57 2°42.66 253.3 14 253 8.3
2011-04-21 08:25:32 51°10.563 2°42.624 252.7 14 252 8.2
2011-04-21 08:25:36 51°10.558 2°42.601 251.9 14.1 252 8.4
2011-04-21 08:25:41 51°10.552 2°42.571 251.5 14 252 8.3
2011-04-21 08:25:46 51°10.546 2°42.542 251.5 14.1 252 8.3
2011-04-21 08:25:52 51°10.539 2°42.506 251.6 14 252 8.4
2011-04-21 08:25:56 51°10.534 2°42.483 251.3 14.1 252 8.3
2011-04-21 08:26:01 51°10.528 2°42.453 251.2 14.1 252 8.3
2011-04-21 08:26:06 51°10.522 2°42.424 251.6 14.1 252 8.4
2011-04-21 08:26:12 51°10.515 2°42.388 251.8 14.1 252 8.4
2011-04-21 08:26:16 51°10.51 2°42.364 251.9 14.1 253 8.4
2011-04-21 08:26:21 51°10.505 2°42.335 252.2 14.1 253 8.5
2011-04-21 08:26:26 51°10.499 2°42.305 252.7 14.1 253 8.5
2011-04-21 08:26:31 51°10.493 2°42.275 252.7 14.1 253 8.5
2011-04-21 08:26:36 51°10.487 2°42.245 252.7 14.1 252 8.4
2011-04-21 08:26:41 51°10.481 2°42.216 252 14.1 252 8.4
2011-04-21 08:26:46 51°10.475 2°42.186 251.1 14.1 251 8.4
2011-04-21 08:26:52 51°10.467 2°42.151 250.2 14.1 249 8.5
2011-04-21 08:26:56 51°10.46 2°42.128 248.5 14.1 247 8.5
2011-04-21 08:27:02 51°10.45 2°42.095 245.4 14 243 8.5
2011-04-21 08:27:07 51°10.44 2°42.068 241.7 14 240 8.4
2011-04-21 08:27:12 51°10.43 2°42.041 238.9 14 240 8.4
2011-04-21 08:27:16 51°10.422 2°42.02 237.4 14 239 8.4
2011-04-21 08:27:21 51°10.412 2°41.994 236.3 13.9 238 8.4
2011-04-21 08:27:26 51°10.401 2°41.968 235.4 14 237 8.4
2011-04-21 08:27:32 51°10.389 2°41.937 234.9 13.9 237 8.5
2011-04-21 08:27:36 51°10.38 2°41.917 234.7 13.9 236 8.3
2011-04-21 08:27:41 51°10.37 2°41.891 234 13.9 237 8.3
2011-04-21 08:27:46 51°10.359 2°41.865 234.3 13.9 238 8.3
2011-04-21 08:27:52 51°10.348 2°41.833 235.6 13.9 240 8.2
2011-04-21 08:27:56 51°10.34 2°41.812 237.6 13.9 242 8.2
2011-04-21 08:28:01 51°10.332 2°41.784 239.8 13.9 245 8.3
2011-04-21 08:28:06 51°10.325 2°41.756 243.9 13.9 249 8.3
2011-04-21 08:28:12 51°10.317 2°41.721 247.5 13.9 251 8.2
2011-04-21 08:28:16 51°10.313 2°41.697 250.5 13.8 253 8.3
2011-04-21 08:28:21 51°10.308 2°41.668 253 13.8 256 8.2
2011-04-21 08:28:26 51°10.304 2°41.638 255.4 13.9 258 8.3
2011-04-21 08:28:31 51°10.3 2°41.608 257.7 13.9 259 8.3
2011-04-21 08:28:36 51°10.296 2°41.578 258.9 13.9 260 8.4
2011-04-21 08:28:41 51°10.293 2°41.548 260.3 13.9 260 8.4
2011-04-21 08:28:46 51°10.29 2°41.517 260.8 14 261 8.4
2011-04-21 08:28:52 51°10.286 2°41.481 261.1 14 260 8.5
2011-04-21 08:28:56 51°10.284 2°41.456 260.7 14 260 8.5
2011-04-21 08:29:02 51°10.279 2°41.42 259.9 14 258 8.5
2011-04-21 08:29:06 51°10.275 2°41.396 258.3 14 256 8.7
2011-04-21 08:29:12 51°10.269 2°41.361 255.7 14 253 8.6
2011-04-21 08:29:16 51°10.263 2°41.337 252.2 14 250 8.6
2011-04-21 08:29:22 51°10.254 2°41.303 248.9 14 248 8.7
2011-04-21 08:29:26 51°10.248 2°41.28 246.4 14 247 8.6
2011-04-21 08:29:32 51°10.239 2°41.246 245.1 14 246 8.7
2011-04-21 08:29:36 51°10.232 2°41.224 244.2 14 246 8.7
2011-04-21 08:29:41 51°10.224 2°41.196 243.5 14 245 8.6
2011-04-21 08:29:46 51°10.215 2°41.168 242.6 14 244 8.7
2011-04-21 08:29:52 51°10.205 2°41.135 242.4 14 244 8.6
2011-04-21 08:29:56 51°10.199 2°41.112 242.3 14.1 245 8.6
2011-04-21 08:30:01 51°10.191 2°41.084 243 14.1 246 8.5
2011-04-21 08:30:06 51°10.183 2°41.055 244.2 14 247 8.6
2011-04-21 08:30:12 51°10.175 2°41.021 245.6 14 249 8.6
2011-04-21 08:30:16 51°10.169 2°40.997 247.7 14.1 251 8.7
2011-04-21 08:30:21 51°10.164 2°40.967 250.4 14.1 253 8.7
2011-04-21 08:30:26 51°10.159 2°40.938 252.6 14.1 255 8.7
2011-04-21 08:30:31 51°10.154 2°40.907 254.5 14.1 258 8.7
2011-04-21 08:30:36 51°10.15 2°40.877 257.1 14 259 8.7
2011-04-21 08:30:41 51°10.147 2°40.846 258.3 14.1 259 8.9
2011-04-21 08:30:46 51°10.143 2°40.816 258.8 14.1 259 8.8
2011-04-21 08:30:52 51°10.138 2°40.779 258.8 14.1 259 8.8
2011-04-21 08:30:56 51°10.135 2°40.755 258.8 14.1 259 8.9
2011-04-21 08:31:01 51°10.131 2°40.725 258.5 14.1 258 9
2011-04-21 08:31:07 51°10.126 2°40.688 258.1 14.1 258 8.9
2011-04-21 08:31:12 51°10.122 2°40.657 258 14.1 258 8.9
2011-04-21 08:31:16 51°10.119 2°40.633 257 14.1 256 8.9
2011-04-21 08:31:21 51°10.113 2°40.603 255.5 14.1 254 9.1
2011-04-21 08:31:26 51°10.108 2°40.574 253.5 14.1 252 9
2011-04-21 08:31:32 51°10.1 2°40.538 251.4 14.1 250 9.1
2011-04-21 08:31:36 51°10.094 2°40.515 249 14.1 248 9
2011-04-21 08:31:41 51°10.086 2°40.486 246.8 14.1 248 9.1
2011-04-21 08:31:47 51°10.077 2°40.452 246.1 14.1 247 9.1
2011-04-21 08:31:52 51°10.07 2°40.423 245.3 14.1 247 9
2011-04-21 08:31:56 51°10.063 2°40.401 244.8 14.1 246 9
2011-04-21 08:32:00 51°10.057 2°40.378 244.4 14.1 246 9
2011-04-21 08:32:06 51°10.047 2°40.344 243.9 14.1 246 9
2011-04-21 08:32:12 51°10.037 2°40.31 243.6 14.1 246 9
2011-04-21 08:32:16 51°10.031 2°40.287 243.6 14.1 246 9
2011-04-21 08:32:21 51°10.023 2°40.259 244.4 14.1 247 9
2011-04-21 08:32:26 51°10.017 2°40.23 245.5 14.1 250 9.1
2011-04-21 08:32:32 51°10.009 2°40.194 248.1 14.1 251 9.1
2011-04-21 08:32:36 51°10.005 2°40.17 249.8 14.1 254 9
2011-04-21 08:32:41 51°9.999 2°40.14 252.6 14.1 255 9
2011-04-21 08:32:46 51°9.995 2°40.11 254.2 14.1 257 9.1
2011-04-21 08:32:52 51°9.99 2°40.074 256 14.1 257 9
2011-04-21 08:32:56 51°9.987 2°40.049 257 14.1 259 9.1
2011-04-21 08:33:01 51°9.983 2°40.019 258.2 14.1 259 9.1
2011-04-21 08:33:06 51°9.979 2°39.988 258.7 14.2 260 9.2
2011-04-21 08:33:12 51°9.975 2°39.951 259.1 14.2 260 9.2
2011-04-21 08:33:16 51°9.972 2°39.926 259.4 14.2 260 9.2
2011-04-21 08:33:21 51°9.969 2°39.896 259.7 14.2 260 9.2
2011-04-21 08:33:26 51°9.965 2°39.865 259.6 14.2 260 9.3
2011-04-21 08:33:32 51°9.961 2°39.828 259.3 14.2 259 9.2
2011-04-21 08:33:36 51°9.957 2°39.804 258.6 14.2 258 9.3
2011-04-21 08:33:41 51°9.952 2°39.773 257 14.2 255 9.3
2011-04-21 08:33:46 51°9.947 2°39.743 255 14.2 254 9.3
2011-04-21 08:33:52 51°9.94 2°39.708 252.5 14.2 251 9.4
2011-04-21 08:33:56 51°9.934 2°39.684 250.6 14.2 250 9.3
2011-04-21 08:34:00 51°9.929 2°39.661 248.5 14.2 249 9.3
2011-04-21 08:34:07 51°9.919 2°39.62 247.7 14.2 249 9.2
2011-04-21 08:34:12 51°9.911 2°39.591 246.9 14.2 247 9.3
2011-04-21 08:34:16 51°9.905 2°39.568 245.8 14.2 248 9.4
2011-04-21 08:34:21 51°9.897 2°39.539 245.7 14.2 247 9.4
2011-04-21 08:34:26 51°9.89 2°39.51 245.2 14.2 247 9.3
2011-04-21 08:34:32 51°9.88 2°39.476 244.7 14.2 246 9.3
2011-04-21 08:34:36 51°9.874 2°39.453 244.4 14.2 247 9.2
2011-04-21 08:34:41 51°9.866 2°39.424 244.4 14.2 247 9.3
2011-04-21 08:34:46 51°9.859 2°39.395 244.9 14.2 248 9.4
2011-04-21 08:34:52 51°9.851 2°39.36 246.2 14.2 250 9.4
2011-04-21 08:34:56 51°9.845 2°39.336 247.7 14.2 251 9.4
2011-04-21 08:35:01 51°9.839 2°39.306 249.5 14.2 253 9.4
2011-04-21 08:35:06 51°9.834 2°39.276 251 14.2 254 9.5
2011-04-21 08:35:12 51°9.828 2°39.24 252.6 14.2 255 9.5
2011-04-21 08:35:16 51°9.824 2°39.216 254.1 14.2 256 9.6
2011-04-21 08:35:21 51°9.819 2°39.185 255.2 14.2 257 9.6
2011-04-21 08:35:26 51°9.815 2°39.154 256.5 14.2 258 9.7
2011-04-21 08:35:31 51°9.812 2°39.123 257.7 14.3 259 9.7
2011-04-21 08:35:36 51°9.808 2°39.092 258.3 14.3 259 9.7
2011-04-21 08:35:41 51°9.804 2°39.061 258.5 14.3 259 9.7
2011-04-21 08:35:46 51°9.8 2°39.031 258.6 13.8 259 9.8
2011-04-21 08:35:52 51°9.796 2°38.997 258.6 13.1 259 9.7
2011-04-21 08:35:56 51°9.793 2°38.975 258.6 12.6 259 9.8
2011-04-21 08:36:02 51°9.789 2°38.944 258.5 11.8 258 10
2011-04-21 08:36:07 51°9.786 2°38.921 257.5 11 257 10.1
2011-04-21 08:36:12 51°9.782 2°38.899 255.6 10.2 254 10.1
2011-04-21 08:36:16 51°9.778 2°38.883 252.9 9.7 252 10.1
2011-04-21 08:36:21 51°9.774 2°38.864 249.2 8.9 248 10.2
2011-04-21 08:36:26 51°9.769 2°38.847 245.4 8.4 245 10.2
2011-04-21 08:36:32 51°9.763 2°38.829 241.1 7.9 243 10.1
2011-04-21 08:36:36 51°9.759 2°38.817 238.4 7.4 241 10.2
2011-04-21 08:36:41 51°9.754 2°38.804 235.4 7 238 10.2
2011-04-21 08:36:46 51°9.749 2°38.791 232.7 6.6 237 10.2
2011-04-21 08:36:52 51°9.742 2°38.778 230.1 6.3 235 10.2
2011-04-21 08:36:56 51°9.738 2°38.769 228.4 6.1 234 10.1
2011-04-21 08:37:01 51°9.734 2°38.759 226.6 5.8 232 10.1
2011-04-21 08:37:06 51°9.729 2°38.749 224.9 5.6 232 10.1
2011-04-21 08:37:12 51°9.723 2°38.738 223.2 5.3 230 10.1
2011-04-21 08:37:16 51°9.719 2°38.731 221.6 5.2 229 10.1
2011-04-21 08:37:21 51°9.715 2°38.723 220 5 229 10.1
2011-04-21 08:37:26 51°9.71 2°38.715 218.6 4.8 228 10.1
2011-04-21 08:37:31 51°9.706 2°38.707 217.2 4.6 227 10.1
2011-04-21 08:37:36 51°9.702 2°38.7 215.9 4.5 226 10
2011-04-21 08:37:41 51°9.697 2°38.693 214.4 4.4 225 10
2011-04-21 08:37:46 51°9.693 2°38.687 213.2 4.2 225 10
2011-04-21 08:37:52 51°9.688 2°38.679 212 4.1 224 10.1
2011-04-21 08:37:56 51°9.685 2°38.674 210.9 4 223 10
2011-04-21 08:38:01 51°9.681 2°38.668 209.4 3.9 224 10
2011-04-21 08:38:07 51°9.676 2°38.661 208.5 3.8 223 9.9
2011-04-21 08:38:12 51°9.672 2°38.656 207.6 3.7 222 9.9
2011-04-21 08:38:16 51°9.669 2°38.652 206.5 3.7 222 9.8
2011-04-21 08:38:21 51°9.666 2°38.646 205.5 3.5 221 9.9
2011-04-21 08:38:26 51°9.662 2°38.641 204.6 3.5 221 9.9
2011-04-21 08:38:32 51°9.658 2°38.636 203.6 3.4 220 9.9
2011-04-21 08:38:36 51°9.655 2°38.632 202.7 3.4 220 9.8
2011-04-21 08:38:41 51°9.651 2°38.627 202 3.5 219 9.8
2011-04-21 08:38:47 51°9.647 2°38.62 201.9 3.6 219 9.8
2011-04-21 08:38:52 51°9.643 2°38.615 201.9 3.7 219 9.8
2011-04-21 08:38:56 51°9.64 2°38.611 202.8 3.7 219 9.8
2011-04-21 08:39:00 51°9.636 2°38.607 204.1 3.8 220 9.9
2011-04-21 08:39:06 51°9.631 2°38.601 205.8 3.8 221 9.8
2011-04-21 08:39:12 51°9.627 2°38.594 207.5 3.9 222 9.7
2011-04-21 08:39:16 51°9.623 2°38.589 209.2 3.9 223 9.8
2011-04-21 08:39:21 51°9.619 2°38.583 211.1 4 224 9.8
2011-04-21 08:39:26 51°9.615 2°38.577 212.7 4 225 9.7
2011-04-21 08:39:32 51°9.611 2°38.569 214.5 4.1 226 9.7
2011-04-21 08:39:36 51°9.608 2°38.564 216.2 4.1 227 9.7
2011-04-21 08:39:41 51°9.604 2°38.557 217.7 4.1 229 9.7
2011-04-21 08:39:46 51°9.6 2°38.55 219.1 4.1 229 9.7
2011-04-21 08:39:52 51°9.596 2°38.541 220.3 4.1 231 9.6
2011-04-21 08:39:56 51°9.593 2°38.536 221.6 4.1 231 9.6
2011-04-21 08:40:01 51°9.589 2°38.529 222.9 4.1 232 9.7
2011-04-21 08:40:06 51°9.586 2°38.522 224 4.1 233 9.7
2011-04-21 08:40:12 51°9.582 2°38.513 225 4.1 234 9.7
2011-04-21 08:40:16 51°9.579 2°38.507 226 4.1 234 9.6
2011-04-21 08:40:21 51°9.576 2°38.499 227 4.1 235 9.6
2011-04-21 08:40:26 51°9.573 2°38.492 228 4.1 236 9.4
2011-04-21 08:40:32 51°9.569 2°38.483 228.9 4.1 237 9.6
2011-04-21 08:40:36 51°9.566 2°38.477 229.9 4.1 237 9.7
2011-04-21 08:40:41 51°9.563 2°38.469 230.9 4.1 238 9.7
2011-04-21 08:40:47 51°9.56 2°38.46 231.7 4.1 238 9.6
2011-04-21 08:40:52 51°9.557 2°38.453 232.7 4.1 239 9.6
2011-04-21 08:40:56 51°9.555 2°38.446 233.6 4.1 240 9.6
2011-04-21 08:41:00 51°9.552 2°38.44 234.5 4.1 241 9.6
2011-04-21 08:41:07 51°9.549 2°38.429 235.6 4.1 241 9.6
2011-04-21 08:41:12 51°9.546 2°38.421 236.6 4.1 242 9.6
2011-04-21 08:41:16 51°9.544 2°38.415 237.5 4.1 242 9.6
2011-04-21 08:41:21 51°9.541 2°38.407 238.4 4.1 244 9.6
2011-04-21 08:41:26 51°9.539 2°38.399 239.3 4.1 244 9.6
2011-04-21 08:41:32 51°9.536 2°38.389 240.2 4.1 245 9.7
2011-04-21 08:41:36 51°9.534 2°38.382 241.1 4 245 9.6
2011-04-21 08:41:41 51°9.532 2°38.374 241.7 4 245 9.7
2011-04-21 08:41:46 51°9.529 2°38.366 242.3 4 246 9.6
2011-04-21 08:41:52 51°9.527 2°38.357 242.8 4 246 9.6
2011-04-21 08:41:56 51°9.525 2°38.35 243.1 4 247 9.6
2011-04-21 08:42:01 51°9.523 2°38.342 243.4 4 246 9.6
2011-04-21 08:42:06 51°9.52 2°38.334 243.7 4 247 9.6
2011-04-21 08:42:12 51°9.518 2°38.324 244 4 247 9.7
2011-04-21 08:42:16 51°9.516 2°38.317 244.6 4 248 9.6
2011-04-21 08:42:21 51°9.514 2°38.309 245.2 4 248 9.6
2011-04-21 08:42:26 51°9.512 2°38.301 245.8 4 249 9.7
2011-04-21 08:42:32 51°9.509 2°38.291 246.6 4 249 9.6
2011-04-21 08:42:36 51°9.508 2°38.284 247.3 4 250 9.6
2011-04-21 08:42:41 51°9.506 2°38.276 248.1 4 250 9.6
2011-04-21 08:42:46 51°9.504 2°38.268 248.7 4 251 9.6
2011-04-21 08:42:52 51°9.502 2°38.258 249.4 4 251 9.6
2011-04-21 08:42:56 51°9.5 2°38.251 250.2 4 251 9.7
2011-04-21 08:43:00 51°9.499 2°38.244 250.9 4 252 9.6
2011-04-21 08:43:07 51°9.497 2°38.232 251.6 4 252 9.6
2011-04-21 08:43:12 51°9.495 2°38.224 252.2 4 253 9.7
2011-04-21 08:43:16 51°9.494 2°38.217 252.9 4 253 9.6
2011-04-21 08:43:21 51°9.492 2°38.209 253.7 4 255 9.6
2011-04-21 08:43:26 51°9.491 2°38.2 254.4 4 254 9.7
2011-04-21 08:43:32 51°9.489 2°38.19 255.2 4 255 9.7
2011-04-21 08:43:36 51°9.488 2°38.183 256 4 255 9.6
2011-04-21 08:43:41 51°9.486 2°38.175 256.6 4 256 9.6
2011-04-21 08:43:46 51°9.485 2°38.166 257.4 4 256 9.7
2011-04-21 08:43:52 51°9.484 2°38.156 258.2 4 257 9.6
2011-04-21 08:43:56 51°9.483 2°38.149 259 4 258 9.6
2011-04-21 08:44:01 51°9.482 2°38.141 259.7 4 258 9.7
2011-04-21 08:44:06 51°9.48 2°38.132 260.4 4 259 9.5
2011-04-21 08:44:12 51°9.479 2°38.122 261.2 3.9 259 9.6
2011-04-21 08:44:16 51°9.478 2°38.115 261.8 3.9 260 9.6
2011-04-21 08:44:21 51°9.477 2°38.107 262.6 3.9 260 9.7
2011-04-21 08:44:26 51°9.477 2°38.098 263.3 3.9 261 9.7
2011-04-21 08:44:32 51°9.475 2°38.088 263.9 3.9 261 9.7
2011-04-21 08:44:36 51°9.475 2°38.081 264.7 3.9 262 9.8
2011-04-21 08:44:41 51°9.474 2°38.072 265.4 3.9 262 9.7
2011-04-21 08:44:47 51°9.473 2°38.062 266.1 3.9 264 9.8
2011-04-21 08:44:52 51°9.472 2°38.054 266.9 3.9 263 9.7
2011-04-21 08:44:56 51°9.472 2°38.047 267.5 3.9 264 9.7
2011-04-21 08:45:01 51°9.471 2°38.038 268.2 3.9 263 9.7
2011-04-21 08:45:07 51°9.471 2°38.028 268.9 3.9 265 9.8
2011-04-21 08:45:12 51°9.47 2°38.02 269.5 3.9 265 9.8
2011-04-21 08:45:16 51°9.47 2°38.013 269.8 3.8 265 9.8
2011-04-21 08:45:21 51°9.469 2°38.005 270.1 3.8 265 9.8
2011-04-21 08:45:26 51°9.469 2°37.996 270.1 3.9 265 9.9
2011-04-21 08:45:32 51°9.468 2°37.986 270.1 3.9 264 9.9
2011-04-21 08:45:36 51°9.468 2°37.98 270.1 3.8 265 9.8
2011-04-21 08:45:41 51°9.467 2°37.971 269.9 3.9 264 10
2011-04-21 08:45:46 51°9.467 2°37.962 269.9 3.9 265 9.9
2011-04-21 08:45:52 51°9.466 2°37.952 269.6 3.9 264 9.9
2011-04-21 08:45:56 51°9.466 2°37.946 269.4 3.9 265 10
2011-04-21 08:46:02 51°9.465 2°37.935 269.3 3.9 264 10
2011-04-21 08:46:06 51°9.465 2°37.929 269 3.9 265 10
2011-04-21 08:46:11 51°9.464 2°37.92 268.8 3.9 264 10.1
2011-04-21 08:46:16 51°9.464 2°37.912 268.6 3.9 264 10
2011-04-21 08:46:21 51°9.463 2°37.903 268.3 3.9 264 10.1
2011-04-21 08:46:26 51°9.462 2°37.895 268.2 3.9 264 10.2
2011-04-21 08:46:32 51°9.462 2°37.884 267.9 3.9 263 10.1
2011-04-21 08:46:36 51°9.461 2°37.877 267.6 3.9 263 10.2
2011-04-21 08:46:41 51°9.46 2°37.869 267.2 3.9 263 10.2
2011-04-21 08:46:46 51°9.46 2°37.86 266.9 3.9 263 10.2
2011-04-21 08:46:52 51°9.459 2°37.85 266.5 3.9 263 10.3
2011-04-21 08:46:56 51°9.458 2°37.843 266.3 3.9 262 10.3
2011-04-21 08:47:01 51°9.458 2°37.835 265.8 3.9 262 10.3
2011-04-21 08:47:06 51°9.457 2°37.826 265.5 3.9 262 10.3
2011-04-21 08:47:12 51°9.456 2°37.816 265 3.9 262 10.3
2011-04-21 08:47:16 51°9.455 2°37.809 264.6 3.9 261 10.3
2011-04-21 08:47:21 51°9.454 2°37.8 264.3 3.9 261 10.1
2011-04-21 08:47:26 51°9.453 2°37.792 263.9 3.9 261 10.3
2011-04-21 08:47:32 51°9.452 2°37.782 263.6 3.9 261 10.4
2011-04-21 08:47:36 51°9.451 2°37.775 263.3 3.9 260 10.4
2011-04-21 08:47:41 51°9.451 2°37.767 262.8 3.9 261 10.4
2011-04-21 08:47:47 51°9.45 2°37.756 262.6 3.9 260 10.5
2011-04-21 08:47:52 51°9.448 2°37.748 262.2 3.9 260 10.4
2011-04-21 08:47:56 51°9.448 2°37.741 261.8 3.9 259 10.4
2011-04-21 08:48:01 51°9.447 2°37.732 261.6 3.9 260 10.4
2011-04-21 08:48:06 51°9.446 2°37.724 261.3 3.9 259 10.4
2011-04-21 08:48:11 51°9.444 2°37.716 261 3.9 259 10.5
2011-04-21 08:48:16 51°9.443 2°37.707 260.7 3.9 259 10.5
2011-04-21 08:48:21 51°9.442 2°37.698 260.4 3.9 259 10.6
2011-04-21 08:48:26 51°9.441 2°37.69 260 3.9 258 10.6
2011-04-21 08:48:31 51°9.44 2°37.682 259.9 3.9 258 10.6
2011-04-21 08:48:36 51°9.439 2°37.673 259.4 4 258 10.6
2011-04-21 08:48:41 51°9.438 2°37.665 259.1 3.9 257 10.6
2011-04-21 08:48:46 51°9.436 2°37.656 258.8 3.9 257 10.6
2011-04-21 08:48:51 51°9.435 2°37.648 258.5 3.9 257 10.6
2011-04-21 08:48:56 51°9.434 2°37.639 258.4 3.9 257 10.7
2011-04-21 08:49:01 51°9.433 2°37.631 258.3 3.9 257 10.6
2011-04-21 08:49:07 51°9.431 2°37.621 258.3 3.9 257 10.6
2011-04-21 08:49:12 51°9.43 2°37.612 258.3 3.9 257 10.5
2011-04-21 08:49:16 51°9.429 2°37.605 258.4 3.9 257 10.7
2011-04-21 08:49:21 51°9.428 2°37.597 258.5 3.9 257 10.7
2011-04-21 08:49:26 51°9.426 2°37.589 258.7 4 257 10.7
2011-04-21 08:49:32 51°9.425 2°37.578 258.9 3.9 258 10.7
2011-04-21 08:49:36 51°9.424 2°37.572 259.1 4 257 10.8
2011-04-21 08:49:41 51°9.423 2°37.563 259.2 3.9 258 10.8
2011-04-21 08:49:47 51°9.421 2°37.553 259.4 3.9 257 10.8
2011-04-21 08:49:52 51°9.42 2°37.544 259.7 4 258 10.9
2011-04-21 08:49:56 51°9.419 2°37.537 259.9 4 257 10.9
2011-04-21 08:50:01 51°9.418 2°37.529 260.3 3.9 258 10.9
2011-04-21 08:50:06 51°9.417 2°37.52 260.5 4 258 10.9
2011-04-21 08:50:12 51°9.416 2°37.51 260.7 4 259 10.9
2011-04-21 08:50:16 51°9.415 2°37.503 261.2 4 259 10.9
2011-04-21 08:50:21 51°9.414 2°37.495 261.4 4 259 10.9
2011-04-21 08:50:26 51°9.413 2°37.486 261.7 3.9 260 11
2011-04-21 08:50:32 51°9.412 2°37.476 262 4 259 11
2011-04-21 08:50:36 51°9.411 2°37.469 262.3 4 260 11
2011-04-21 08:50:41 51°9.41 2°37.46 262.7 4 260 11
2011-04-21 08:50:46 51°9.409 2°37.452 262.9 3.9 260 11.1
2011-04-21 08:50:51 51°9.408 2°37.443 263.2 3.9 260 11.1
2011-04-21 08:50:56 51°9.407 2°37.435 263.6 4 260 11.1
2011-04-21 08:51:01 51°9.406 2°37.426 263.7 4 261 11.1
2011-04-21 08:51:06 51°9.405 2°37.417 263.9 4 261 11.1
2011-04-21 08:51:11 51°9.404 2°37.409 264.1 4 261 11.1
2011-04-21 08:51:16 51°9.404 2°37.4 264.4 4 261 11.1
2011-04-21 08:51:22 51°9.402 2°37.389 264.7 4 261 11.1
2011-04-21 08:51:26 51°9.402 2°37.383 265 4 262 11.2
2011-04-21 08:51:31 51°9.401 2°37.374 265.1 4 261 11.3
2011-04-21 08:51:36 51°9.4 2°37.365 265.5 4 262 11.2
2011-04-21 08:51:41 51°9.399 2°37.356 265.8 4 262 11.3
2011-04-21 08:51:47 51°9.398 2°37.346 266.2 4 262 11.3
2011-04-21 08:51:52 51°9.397 2°37.337 266.4 4 262 11.3
2011-04-21 08:51:56 51°9.397 2°37.33 266.7 4 263 11.4
2011-04-21 08:52:01 51°9.396 2°37.322 267 4 262 11.4
2011-04-21 08:52:07 51°9.395 2°37.311 267.2 4 263 11.3
2011-04-21 08:52:12 51°9.395 2°37.302 267.4 4 262 11.5
2011-04-21 08:52:16 51°9.394 2°37.295 267.6 4 263 11.4
2011-04-21 08:52:21 51°9.393 2°37.287 267.9 4 263 11.6
2011-04-21 08:52:26 51°9.393 2°37.278 268.1 4 264 11.7
2011-04-21 08:52:32 51°9.392 2°37.267 268.3 4 263 11.5
2011-04-21 08:52:36 51°9.391 2°37.26 268.6 4 264 11.6
2011-04-21 08:52:41 51°9.391 2°37.252 268.7 4 263 11.7
2011-04-21 08:52:46 51°9.39 2°37.243 268.9 4 264 11.8
2011-04-21 08:52:51 51°9.389 2°37.234 269.3 4 264 11.8
2011-04-21 08:52:56 51°9.389 2°37.225 269.5 4 265 11.8
2011-04-21 08:53:01 51°9.388 2°37.216 269.7 4 264 11.8
2011-04-21 08:53:06 51°9.388 2°37.208 270 4 265 11.9
2011-04-21 08:53:11 51°9.387 2°37.199 270.2 4 264 11.8
2011-04-21 08:53:16 51°9.387 2°37.19 270.5 4 264 11.9
2011-04-21 08:53:21 51°9.386 2°37.181 270.7 4 265 11.9
2011-04-21 08:53:26 51°9.386 2°37.173 270.9 4 265 12
2011-04-21 08:53:31 51°9.385 2°37.164 271.2 4 265 12
2011-04-21 08:53:36 51°9.385 2°37.155 271.5 4 265 12.1
2011-04-21 08:53:41 51°9.384 2°37.146 271.7 4 266 12.1
2011-04-21 08:53:47 51°9.384 2°37.135 272 4 266 12.1
2011-04-21 08:53:52 51°9.384 2°37.127 272.3 4 266 12.2
2011-04-21 08:53:56 51°9.383 2°37.12 272.7 4 266 12.2
2011-04-21 08:54:01 51°9.383 2°37.111 272.9 4 267 12.2
2011-04-21 08:54:06 51°9.383 2°37.102 273 4 266 12.3
2011-04-21 08:54:12 51°9.382 2°37.092 272.8 4 266 12.3
2011-04-21 08:54:16 51°9.382 2°37.085 272.2 4 265 12.4
2011-04-21 08:54:21 51°9.381 2°37.076 271.4 4 264 12.5
2011-04-21 08:54:27 51°9.381 2°37.065 270.4 4 265 12.5
2011-04-21 08:54:32 51°9.38 2°37.057 269.4 4 263 12.5
2011-04-21 08:54:36 51°9.379 2°37.05 268.6 4 263 12.5
2011-04-21 08:54:41 51°9.379 2°37.041 267.4 4 262 12.6
2011-04-21 08:54:46 51°9.378 2°37.032 266.4 4 262 12.7
2011-04-21 08:54:52 51°9.377 2°37.022 265.4 4 261 12.7
2011-04-21 08:54:56 51°9.376 2°37.015 264.3 4 261 12.7
2011-04-21 08:55:01 51°9.375 2°37.006 263.2 4 260 12.8
2011-04-21 08:55:06 51°9.374 2°36.998 262.2 4 259 12.8
2011-04-21 08:55:11 51°9.373 2°36.989 261.2 4 259 12.8
2011-04-21 08:55:16 51°9.372 2°36.981 260.1 4 258 12.9
2011-04-21 08:55:21 51°9.371 2°36.972 259.1 4 257 13
2011-04-21 08:55:26 51°9.37 2°36.963 258 4 256 13
2011-04-21 08:55:31 51°9.368 2°36.955 257 4 257 13
2011-04-21 08:55:36 51°9.367 2°36.947 256.1 3.9 255 13.1
2011-04-21 08:55:41 51°9.366 2°36.938 255.1 3.9 255 13.1
2011-04-21 08:55:46 51°9.364 2°36.93 254.1 4 254 13.2
2011-04-21 08:55:51 51°9.362 2°36.921 253.2 4 254 13.2
2011-04-21 08:55:56 51°9.361 2°36.913 252 4 252 13.2
2011-04-21 08:56:01 51°9.359 2°36.905 251.2 3.9 252 13.2
2011-04-21 08:56:07 51°9.357 2°36.895 250.1 4 251 13.3
2011-04-21 08:56:12 51°9.355 2°36.887 249.1 4 251 13.3
2011-04-21 08:56:16 51°9.354 2°36.88 248.2 3.9 250 13.3
2011-04-21 08:56:21 51°9.352 2°36.872 247.2 3.9 250 13.3
2011-04-21 08:56:27 51°9.35 2°36.862 246.2 3.9 249 13.4
2011-04-21 08:56:32 51°9.348 2°36.854 245.3 3.9 249 13.3
2011-04-21 08:56:36 51°9.346 2°36.848 244.4 3.9 248 13.4
2011-04-21 08:56:41 51°9.344 2°36.84 243.4 3.9 247 13.4
2011-04-21 08:56:46 51°9.342 2°36.832 242.4 3.9 247 13.4
2011-04-21 08:56:52 51°9.339 2°36.822 241.5 3.9 246 13.5
2011-04-21 08:56:56 51°9.337 2°36.816 240.4 4 246 13.4
2011-04-21 08:57:01 51°9.335 2°36.808 239.6 3.9 245 13.5
2011-04-21 08:57:06 51°9.333 2°36.8 238.7 3.9 245 13.5
2011-04-21 08:57:11 51°9.33 2°36.792 237.7 3.9 244 13.4
2011-04-21 08:57:16 51°9.328 2°36.785 236.7 3.9 243 13.5
2011-04-21 08:57:21 51°9.325 2°36.777 235.9 3.9 242 13.5
2011-04-21 08:57:26 51°9.323 2°36.769 234.9 3.9 242 13.5
2011-04-21 08:57:31 51°9.32 2°36.761 234.1 3.9 241 13.5
2011-04-21 08:57:36 51°9.318 2°36.754 233.6 4 241 13.5
2011-04-21 08:57:41 51°9.315 2°36.746 233.1 4 241 13.6
2011-04-21 08:57:46 51°9.312 2°36.738 232.8 4 241 13.6
2011-04-21 08:57:51 51°9.309 2°36.731 232.4 4 240 13.6
2011-04-21 08:57:56 51°9.307 2°36.723 232.3 4 241 13.6
2011-04-21 08:58:01 51°9.304 2°36.716 232 4 240 13.6
2011-04-21 08:58:06 51°9.301 2°36.708 231.9 4 240 13.5
2011-04-21 08:58:11 51°9.299 2°36.701 231.6 4 240 13.5
2011-04-21 08:58:16 51°9.296 2°36.693 231.5 4 240 13.4
2011-04-21 08:58:20 51°9.294 2°36.687 231.3 4 239 13.4
2011-04-21 08:58:27 51°9.29 2°36.676 231.1 4 240 13.5
2011-04-21 08:58:31 51°9.287 2°36.67 230.9 4 239 13.4
2011-04-21 08:58:36 51°9.284 2°36.663 230.8 4 239 13.4
2011-04-21 08:58:40 51°9.282 2°36.657 230.8 4 239 13.5
2011-04-21 08:58:47 51°9.278 2°36.646 230.8 4 239 13.5
2011-04-21 08:58:52 51°9.275 2°36.639 230.9 4 239 13.4
2011-04-21 08:58:56 51°9.273 2°36.632 231.2 4 240 13.4
2011-04-21 08:59:01 51°9.27 2°36.625 231.5 4 240 13.4
2011-04-21 08:59:06 51°9.267 2°36.617 231.7 4 240 13.4
2011-04-21 08:59:12 51°9.264 2°36.608 232.2 4 240 13.5
2011-04-21 08:59:16 51°9.262 2°36.601 232.4 4.1 241 13.5
2011-04-21 08:59:20 51°9.259 2°36.595 232.7 4.1 240 13.4
2011-04-21 08:59:26 51°9.256 2°36.586 233.1 4.1 241 13.4
2011-04-21 08:59:32 51°9.253 2°36.576 233.5 4.1 240 13.3
2011-04-21 08:59:36 51°9.25 2°36.57 233.9 4.1 241 13.3